sensor_id;sensor_type;location;lat;lon;timestamp;P1;durP1;ratioP1;P2;durP2;ratioP2
60612;SDS011;46443;59.792;17.626;2023-12-07T00:02:16;10.75;;;3.65;;
60612;SDS011;46443;59.792;17.626;2023-12-07T00:04:42;11.27;;;4.05;;
60612;SDS011;46443;59.792;17.626;2023-12-07T00:07:08;8.25;;;4.38;;
60612;SDS011;46443;59.792;17.626;2023-12-07T00:09:35;7.18;;;3.78;;
60612;SDS011;46443;59.792;17.626;2023-12-07T00:12:01;11.45;;;3.70;;
60612;SDS011;46443;59.792;17.626;2023-12-07T00:14:27;12.93;;;5.28;;
60612;SDS011;46443;59.792;17.626;2023-12-07T00:16:53;9.23;;;3.90;;
60612;SDS011;46443;59.792;17.626;2023-12-07T00:19:19;12.55;;;4.05;;
60612;SDS011;46443;59.792;17.626;2023-12-07T00:21:45;9.73;;;4.80;;
60612;SDS011;46443;59.792;17.626;2023-12-07T00:24:11;8.00;;;3.95;;
60612;SDS011;46443;59.792;17.626;2023-12-07T00:26:37;12.00;;;4.65;;
60612;SDS011;46443;59.792;17.626;2023-12-07T00:29:03;10.27;;;4.70;;
60612;SDS011;46443;59.792;17.626;2023-12-07T00:31:29;8.93;;;3.72;;
60612;SDS011;46443;59.792;17.626;2023-12-07T00:33:55;6.70;;;4.20;;
60612;SDS011;46443;59.792;17.626;2023-12-07T00:36:21;5.80;;;3.08;;
60612;SDS011;46443;59.792;17.626;2023-12-07T00:38:48;7.20;;;3.90;;
60612;SDS011;46443;59.792;17.626;2023-12-07T00:41:14;6.45;;;3.30;;
60612;SDS011;46443;59.792;17.626;2023-12-07T00:43:40;8.15;;;3.80;;
60612;SDS011;46443;59.792;17.626;2023-12-07T00:46:09;5.30;;;3.25;;
60612;SDS011;46443;59.792;17.626;2023-12-07T00:48:36;5.57;;;3.05;;
60612;SDS011;46443;59.792;17.626;2023-12-07T00:51:02;6.13;;;3.78;;
60612;SDS011;46443;59.792;17.626;2023-12-07T00:53:28;10.13;;;4.10;;
60612;SDS011;46443;59.792;17.626;2023-12-07T00:55:54;7.63;;;4.15;;
60612;SDS011;46443;59.792;17.626;2023-12-07T00:58:21;6.72;;;2.97;;
60612;SDS011;46443;59.792;17.626;2023-12-07T01:00:47;8.00;;;4.07;;
60612;SDS011;46443;59.792;17.626;2023-12-07T01:03:13;7.10;;;3.35;;
60612;SDS011;46443;59.792;17.626;2023-12-07T01:05:39;11.10;;;3.92;;
60612;SDS011;46443;59.792;17.626;2023-12-07T01:08:05;8.27;;;3.75;;
60612;SDS011;46443;59.792;17.626;2023-12-07T01:10:31;12.63;;;4.65;;
60612;SDS011;46443;59.792;17.626;2023-12-07T01:12:57;8.55;;;2.88;;
60612;SDS011;46443;59.792;17.626;2023-12-07T01:15:23;6.57;;;3.97;;
60612;SDS011;46443;59.792;17.626;2023-12-07T01:17:49;11.98;;;4.43;;
60612;SDS011;46443;59.792;17.626;2023-12-07T01:20:15;9.20;;;3.92;;
60612;SDS011;46443;59.792;17.626;2023-12-07T01:22:42;9.68;;;3.67;;
60612;SDS011;46443;59.792;17.626;2023-12-07T01:25:08;9.52;;;3.35;;
60612;SDS011;46443;59.792;17.626;2023-12-07T01:27:34;7.00;;;2.97;;
60612;SDS011;46443;59.792;17.626;2023-12-07T01:30:00;8.60;;;4.28;;
60612;SDS011;46443;59.792;17.626;2023-12-07T01:32:28;6.32;;;3.42;;
60612;SDS011;46443;59.792;17.626;2023-12-07T01:34:54;10.65;;;4.10;;
60612;SDS011;46443;59.792;17.626;2023-12-07T01:37:20;10.40;;;4.15;;
60612;SDS011;46443;59.792;17.626;2023-12-07T01:39:46;12.38;;;3.83;;
60612;SDS011;46443;59.792;17.626;2023-12-07T01:42:12;8.02;;;3.72;;
60612;SDS011;46443;59.792;17.626;2023-12-07T01:44:38;4.68;;;3.75;;
60612;SDS011;46443;59.792;17.626;2023-12-07T01:47:05;7.55;;;4.28;;
60612;SDS011;46443;59.792;17.626;2023-12-07T01:49:33;9.45;;;3.97;;
60612;SDS011;46443;59.792;17.626;2023-12-07T01:51:59;4.47;;;2.78;;
60612;SDS011;46443;59.792;17.626;2023-12-07T01:54:26;8.05;;;3.65;;
60612;SDS011;46443;59.792;17.626;2023-12-07T01:56:52;7.28;;;4.53;;
60612;SDS011;46443;59.792;17.626;2023-12-07T01:59:18;9.77;;;3.42;;
60612;SDS011;46443;59.792;17.626;2023-12-07T02:01:44;6.47;;;3.70;;
60612;SDS011;46443;59.792;17.626;2023-12-07T02:04:10;6.88;;;2.90;;
60612;SDS011;46443;59.792;17.626;2023-12-07T02:06:36;13.05;;;3.95;;
60612;SDS011;46443;59.792;17.626;2023-12-07T02:09:02;6.75;;;3.35;;
60612;SDS011;46443;59.792;17.626;2023-12-07T02:11:28;7.80;;;2.90;;
60612;SDS011;46443;59.792;17.626;2023-12-07T02:13:55;6.40;;;2.90;;
60612;SDS011;46443;59.792;17.626;2023-12-07T02:19:36;5.60;;;2.70;;
60612;SDS011;46443;59.792;17.626;2023-12-07T02:22:10;6.10;;;3.20;;
60612;SDS011;46443;59.792;17.626;2023-12-07T02:24:37;5.72;;;3.40;;
60612;SDS011;46443;59.792;17.626;2023-12-07T02:27:03;6.97;;;3.38;;
60612;SDS011;46443;59.792;17.626;2023-12-07T02:29:29;4.75;;;2.90;;
60612;SDS011;46443;59.792;17.626;2023-12-07T02:31:55;4.10;;;2.40;;
60612;SDS011;46443;59.792;17.626;2023-12-07T02:34:21;4.88;;;2.53;;
60612;SDS011;46443;59.792;17.626;2023-12-07T02:36:47;5.25;;;3.28;;
60612;SDS011;46443;59.792;17.626;2023-12-07T02:39:14;5.18;;;3.28;;
60612;SDS011;46443;59.792;17.626;2023-12-07T02:41:41;4.95;;;2.60;;
60612;SDS011;46443;59.792;17.626;2023-12-07T02:44:07;8.25;;;3.17;;
60612;SDS011;46443;59.792;17.626;2023-12-07T02:46:34;5.18;;;2.88;;
60612;SDS011;46443;59.792;17.626;2023-12-07T02:49:00;7.97;;;3.25;;
60612;SDS011;46443;59.792;17.626;2023-12-07T02:51:26;6.93;;;3.35;;
60612;SDS011;46443;59.792;17.626;2023-12-07T02:53:52;9.13;;;3.33;;
60612;SDS011;46443;59.792;17.626;2023-12-07T02:56:18;5.43;;;2.95;;
60612;SDS011;46443;59.792;17.626;2023-12-07T02:58:44;8.00;;;4.22;;
60612;SDS011;46443;59.792;17.626;2023-12-07T03:01:10;6.53;;;2.78;;
60612;SDS011;46443;59.792;17.626;2023-12-07T03:03:36;4.85;;;3.15;;
60612;SDS011;46443;59.792;17.626;2023-12-07T03:06:03;7.22;;;3.30;;
60612;SDS011;46443;59.792;17.626;2023-12-07T03:08:30;4.70;;;2.85;;
60612;SDS011;46443;59.792;17.626;2023-12-07T03:10:56;7.28;;;3.50;;
60612;SDS011;46443;59.792;17.626;2023-12-07T03:13:22;8.77;;;3.70;;
60612;SDS011;46443;59.792;17.626;2023-12-07T03:15:48;8.27;;;2.80;;
60612;SDS011;46443;59.792;17.626;2023-12-07T03:18:14;4.93;;;3.15;;
60612;SDS011;46443;59.792;17.626;2023-12-07T03:20:40;4.43;;;2.78;;
60612;SDS011;46443;59.792;17.626;2023-12-07T03:23:07;5.95;;;3.08;;
60612;SDS011;46443;59.792;17.626;2023-12-07T03:25:33;6.72;;;3.22;;
60612;SDS011;46443;59.792;17.626;2023-12-07T03:27:59;6.88;;;3.55;;
60612;SDS011;46443;59.792;17.626;2023-12-07T03:30:25;6.45;;;3.22;;
60612;SDS011;46443;59.792;17.626;2023-12-07T03:32:51;5.70;;;3.60;;
60612;SDS011;46443;59.792;17.626;2023-12-07T03:35:17;8.48;;;3.90;;
60612;SDS011;46443;59.792;17.626;2023-12-07T03:37:43;8.50;;;3.10;;
60612;SDS011;46443;59.792;17.626;2023-12-07T03:40:09;5.75;;;3.15;;
60612;SDS011;46443;59.792;17.626;2023-12-07T03:42:36;6.00;;;3.20;;
60612;SDS011;46443;59.792;17.626;2023-12-07T03:45:02;8.35;;;3.45;;
60612;SDS011;46443;59.792;17.626;2023-12-07T03:47:28;6.68;;;3.17;;
60612;SDS011;46443;59.792;17.626;2023-12-07T03:49:54;6.72;;;3.67;;
60612;SDS011;46443;59.792;17.626;2023-12-07T03:52:20;4.78;;;3.10;;
60612;SDS011;46443;59.792;17.626;2023-12-07T03:54:46;7.90;;;3.60;;
60612;SDS011;46443;59.792;17.626;2023-12-07T03:57:12;8.25;;;3.15;;
60612;SDS011;46443;59.792;17.626;2023-12-07T03:59:39;3.30;;;2.67;;
60612;SDS011;46443;59.792;17.626;2023-12-07T04:02:05;6.38;;;3.08;;
60612;SDS011;46443;59.792;17.626;2023-12-07T04:04:31;6.13;;;2.97;;
60612;SDS011;46443;59.792;17.626;2023-12-07T04:06:57;4.78;;;2.72;;
60612;SDS011;46443;59.792;17.626;2023-12-07T04:09:23;5.10;;;3.25;;
60612;SDS011;46443;59.792;17.626;2023-12-07T04:11:49;6.00;;;3.10;;
60612;SDS011;46443;59.792;17.626;2023-12-07T04:14:15;8.45;;;3.20;;
60612;SDS011;46443;59.792;17.626;2023-12-07T04:16:41;5.03;;;2.63;;
60612;SDS011;46443;59.792;17.626;2023-12-07T04:19:07;5.65;;;2.40;;
60612;SDS011;46443;59.792;17.626;2023-12-07T04:21:34;6.38;;;3.28;;
60612;SDS011;46443;59.792;17.626;2023-12-07T04:24:00;5.70;;;2.70;;
60612;SDS011;46443;59.792;17.626;2023-12-07T04:26:26;4.68;;;3.03;;
60612;SDS011;46443;59.792;17.626;2023-12-07T04:28:52;5.55;;;3.05;;
60612;SDS011;46443;59.792;17.626;2023-12-07T04:31:18;6.03;;;2.70;;
60612;SDS011;46443;59.792;17.626;2023-12-07T04:33:44;8.18;;;2.97;;
60612;SDS011;46443;59.792;17.626;2023-12-07T04:36:10;3.38;;;2.13;;
60612;SDS011;46443;59.792;17.626;2023-12-07T04:38:37;6.35;;;2.80;;
60612;SDS011;46443;59.792;17.626;2023-12-07T04:41:03;8.90;;;3.75;;
60612;SDS011;46443;59.792;17.626;2023-12-07T04:43:29;5.95;;;3.45;;
60612;SDS011;46443;59.792;17.626;2023-12-07T04:45:55;7.68;;;3.58;;
60612;SDS011;46443;59.792;17.626;2023-12-07T04:48:21;6.63;;;3.00;;
60612;SDS011;46443;59.792;17.626;2023-12-07T04:50:47;5.85;;;3.20;;
60612;SDS011;46443;59.792;17.626;2023-12-07T04:53:13;5.40;;;2.83;;
60612;SDS011;46443;59.792;17.626;2023-12-07T04:55:39;4.55;;;2.40;;
60612;SDS011;46443;59.792;17.626;2023-12-07T04:58:08;4.63;;;2.67;;
60612;SDS011;46443;59.792;17.626;2023-12-07T05:00:34;5.32;;;3.10;;
60612;SDS011;46443;59.792;17.626;2023-12-07T05:03:00;4.53;;;3.10;;
60612;SDS011;46443;59.792;17.626;2023-12-07T05:05:26;6.03;;;3.40;;
60612;SDS011;46443;59.792;17.626;2023-12-07T05:07:52;4.53;;;2.60;;
60612;SDS011;46443;59.792;17.626;2023-12-07T05:10:18;7.88;;;3.88;;
60612;SDS011;46443;59.792;17.626;2023-12-07T05:12:44;10.85;;;3.20;;
60612;SDS011;46443;59.792;17.626;2023-12-07T05:15:10;6.82;;;2.70;;
60612;SDS011;46443;59.792;17.626;2023-12-07T05:17:36;5.80;;;2.92;;
60612;SDS011;46443;59.792;17.626;2023-12-07T05:20:03;6.00;;;3.22;;
60612;SDS011;46443;59.792;17.626;2023-12-07T05:22:30;5.80;;;3.67;;
60612;SDS011;46443;59.792;17.626;2023-12-07T05:24:56;5.65;;;3.03;;
60612;SDS011;46443;59.792;17.626;2023-12-07T05:27:22;5.50;;;3.08;;
60612;SDS011;46443;59.792;17.626;2023-12-07T05:29:48;6.80;;;2.95;;
60612;SDS011;46443;59.792;17.626;2023-12-07T05:32:14;6.07;;;2.65;;
60612;SDS011;46443;59.792;17.626;2023-12-07T05:34:40;4.55;;;2.72;;
60612;SDS011;46443;59.792;17.626;2023-12-07T05:37:07;5.97;;;3.35;;
60612;SDS011;46443;59.792;17.626;2023-12-07T05:39:33;6.32;;;3.15;;
60612;SDS011;46443;59.792;17.626;2023-12-07T05:41:59;6.00;;;3.28;;
60612;SDS011;46443;59.792;17.626;2023-12-07T05:44:25;5.32;;;2.75;;
60612;SDS011;46443;59.792;17.626;2023-12-07T05:46:51;4.28;;;2.35;;
60612;SDS011;46443;59.792;17.626;2023-12-07T05:49:17;5.03;;;2.88;;
60612;SDS011;46443;59.792;17.626;2023-12-07T05:51:43;5.22;;;2.70;;
60612;SDS011;46443;59.792;17.626;2023-12-07T05:54:09;5.30;;;2.75;;
60612;SDS011;46443;59.792;17.626;2023-12-07T05:56:35;11.00;;;3.78;;
60612;SDS011;46443;59.792;17.626;2023-12-07T05:59:01;5.57;;;2.85;;
60612;SDS011;46443;59.792;17.626;2023-12-07T06:01:27;5.28;;;3.13;;
60612;SDS011;46443;59.792;17.626;2023-12-07T06:03:53;4.50;;;2.67;;
60612;SDS011;46443;59.792;17.626;2023-12-07T06:06:20;5.35;;;2.83;;
60612;SDS011;46443;59.792;17.626;2023-12-07T06:08:46;5.20;;;3.05;;
60612;SDS011;46443;59.792;17.626;2023-12-07T06:11:13;4.63;;;2.78;;
60612;SDS011;46443;59.792;17.626;2023-12-07T06:13:39;7.20;;;3.78;;
60612;SDS011;46443;59.792;17.626;2023-12-07T06:16:05;8.43;;;3.20;;
60612;SDS011;46443;59.792;17.626;2023-12-07T06:18:31;5.13;;;2.92;;
60612;SDS011;46443;59.792;17.626;2023-12-07T06:20:58;5.90;;;2.70;;
60612;SDS011;46443;59.792;17.626;2023-12-07T06:23:24;6.63;;;3.78;;
60612;SDS011;46443;59.792;17.626;2023-12-07T06:25:50;6.40;;;3.10;;
60612;SDS011;46443;59.792;17.626;2023-12-07T06:28:16;8.10;;;3.67;;
60612;SDS011;46443;59.792;17.626;2023-12-07T06:30:42;9.02;;;3.47;;
60612;SDS011;46443;59.792;17.626;2023-12-07T06:33:09;6.28;;;3.00;;
60612;SDS011;46443;59.792;17.626;2023-12-07T06:35:36;7.97;;;3.10;;
60612;SDS011;46443;59.792;17.626;2023-12-07T06:38:02;6.30;;;3.15;;
60612;SDS011;46443;59.792;17.626;2023-12-07T06:40:28;9.00;;;3.65;;
60612;SDS011;46443;59.792;17.626;2023-12-07T06:42:54;6.22;;;3.40;;
60612;SDS011;46443;59.792;17.626;2023-12-07T06:45:20;7.40;;;3.38;;
60612;SDS011;46443;59.792;17.626;2023-12-07T06:47:46;4.57;;;2.65;;
60612;SDS011;46443;59.792;17.626;2023-12-07T06:50:12;8.35;;;3.67;;
60612;SDS011;46443;59.792;17.626;2023-12-07T06:52:39;8.68;;;3.25;;
60612;SDS011;46443;59.792;17.626;2023-12-07T06:55:06;5.88;;;3.33;;
60612;SDS011;46443;59.792;17.626;2023-12-07T06:57:32;5.03;;;2.95;;
60612;SDS011;46443;59.792;17.626;2023-12-07T06:59:58;6.55;;;3.53;;
60612;SDS011;46443;59.792;17.626;2023-12-07T07:02:24;5.70;;;3.17;;
60612;SDS011;46443;59.792;17.626;2023-12-07T07:04:51;4.78;;;2.72;;
60612;SDS011;46443;59.792;17.626;2023-12-07T07:07:17;6.47;;;3.10;;
60612;SDS011;46443;59.792;17.626;2023-12-07T07:09:43;6.57;;;3.22;;
60612;SDS011;46443;59.792;17.626;2023-12-07T07:12:10;8.98;;;3.33;;
60612;SDS011;46443;59.792;17.626;2023-12-07T07:14:36;7.50;;;3.80;;
60612;SDS011;46443;59.792;17.626;2023-12-07T07:17:03;6.97;;;3.60;;
60612;SDS011;46443;59.792;17.626;2023-12-07T07:19:30;7.03;;;4.28;;
60612;SDS011;46443;59.792;17.626;2023-12-07T07:21:56;5.95;;;3.20;;
60612;SDS011;46443;59.792;17.626;2023-12-07T07:24:22;6.65;;;3.60;;
60612;SDS011;46443;59.792;17.626;2023-12-07T07:26:48;5.47;;;3.35;;
60612;SDS011;46443;59.792;17.626;2023-12-07T07:29:14;7.10;;;3.63;;
60612;SDS011;46443;59.792;17.626;2023-12-07T07:31:40;7.18;;;4.10;;
60612;SDS011;46443;59.792;17.626;2023-12-07T07:34:06;6.53;;;3.22;;
60612;SDS011;46443;59.792;17.626;2023-12-07T07:36:33;6.75;;;3.53;;
60612;SDS011;46443;59.792;17.626;2023-12-07T07:38:59;9.30;;;3.80;;
60612;SDS011;46443;59.792;17.626;2023-12-07T07:41:25;5.15;;;3.20;;
60612;SDS011;46443;59.792;17.626;2023-12-07T07:43:51;8.15;;;4.03;;
60612;SDS011;46443;59.792;17.626;2023-12-07T07:46:17;8.00;;;3.65;;
60612;SDS011;46443;59.792;17.626;2023-12-07T07:48:43;6.90;;;3.58;;
60612;SDS011;46443;59.792;17.626;2023-12-07T07:51:09;5.65;;;2.90;;
60612;SDS011;46443;59.792;17.626;2023-12-07T07:53:35;7.43;;;3.35;;
60612;SDS011;46443;59.792;17.626;2023-12-07T07:56:01;5.18;;;3.25;;
60612;SDS011;46443;59.792;17.626;2023-12-07T07:58:28;6.25;;;3.22;;
60612;SDS011;46443;59.792;17.626;2023-12-07T08:00:54;5.80;;;3.53;;
60612;SDS011;46443;59.792;17.626;2023-12-07T08:03:20;6.45;;;3.53;;
60612;SDS011;46443;59.792;17.626;2023-12-07T08:05:46;7.80;;;3.70;;
60612;SDS011;46443;59.792;17.626;2023-12-07T08:08:12;8.68;;;4.13;;
60612;SDS011;46443;59.792;17.626;2023-12-07T08:10:38;7.47;;;4.13;;
60612;SDS011;46443;59.792;17.626;2023-12-07T08:13:04;12.02;;;4.88;;
60612;SDS011;46443;59.792;17.626;2023-12-07T08:15:33;8.57;;;4.00;;
60612;SDS011;46443;59.792;17.626;2023-12-07T08:17:59;8.23;;;3.60;;
60612;SDS011;46443;59.792;17.626;2023-12-07T08:20:25;8.35;;;4.18;;
60612;SDS011;46443;59.792;17.626;2023-12-07T08:22:51;8.18;;;4.20;;
60612;SDS011;46443;59.792;17.626;2023-12-07T08:25:17;8.88;;;3.78;;
60612;SDS011;46443;59.792;17.626;2023-12-07T08:27:43;7.93;;;3.30;;
60612;SDS011;46443;59.792;17.626;2023-12-07T08:30:11;7.93;;;3.55;;
60612;SDS011;46443;59.792;17.626;2023-12-07T08:32:38;8.88;;;4.07;;
60612;SDS011;46443;59.792;17.626;2023-12-07T08:35:04;8.43;;;4.35;;
60612;SDS011;46443;59.792;17.626;2023-12-07T08:37:31;7.57;;;4.38;;
60612;SDS011;46443;59.792;17.626;2023-12-07T08:39:58;12.40;;;4.32;;
60612;SDS011;46443;59.792;17.626;2023-12-07T08:42:24;7.35;;;4.25;;
60612;SDS011;46443;59.792;17.626;2023-12-07T08:44:51;7.68;;;4.07;;
60612;SDS011;46443;59.792;17.626;2023-12-07T08:47:18;8.48;;;3.72;;
60612;SDS011;46443;59.792;17.626;2023-12-07T08:49:44;9.93;;;4.10;;
60612;SDS011;46443;59.792;17.626;2023-12-07T08:52:10;7.03;;;4.00;;
60612;SDS011;46443;59.792;17.626;2023-12-07T08:54:36;7.93;;;4.80;;
60612;SDS011;46443;59.792;17.626;2023-12-07T08:57:02;9.07;;;4.22;;
60612;SDS011;46443;59.792;17.626;2023-12-07T08:59:28;8.80;;;4.40;;
60612;SDS011;46443;59.792;17.626;2023-12-07T09:01:55;7.45;;;4.05;;
60612;SDS011;46443;59.792;17.626;2023-12-07T09:04:21;7.10;;;4.13;;
60612;SDS011;46443;59.792;17.626;2023-12-07T09:06:47;8.23;;;4.50;;
60612;SDS011;46443;59.792;17.626;2023-12-07T09:09:13;10.95;;;4.65;;
60612;SDS011;46443;59.792;17.626;2023-12-07T09:11:39;8.57;;;3.97;;
60612;SDS011;46443;59.792;17.626;2023-12-07T09:14:05;9.10;;;4.30;;
60612;SDS011;46443;59.792;17.626;2023-12-07T09:16:32;7.35;;;4.13;;
60612;SDS011;46443;59.792;17.626;2023-12-07T09:18:58;9.40;;;4.22;;
60612;SDS011;46443;59.792;17.626;2023-12-07T09:21:24;6.15;;;4.05;;
60612;SDS011;46443;59.792;17.626;2023-12-07T09:23:50;7.13;;;3.72;;
60612;SDS011;46443;59.792;17.626;2023-12-07T09:26:17;7.35;;;3.92;;
60612;SDS011;46443;59.792;17.626;2023-12-07T09:28:43;12.70;;;4.57;;
60612;SDS011;46443;59.792;17.626;2023-12-07T09:31:09;5.57;;;3.33;;
60612;SDS011;46443;59.792;17.626;2023-12-07T09:33:35;6.63;;;3.35;;
60612;SDS011;46443;59.792;17.626;2023-12-07T09:36:01;7.15;;;4.05;;
60612;SDS011;46443;59.792;17.626;2023-12-07T09:38:34;10.40;;;4.70;;
60612;SDS011;46443;59.792;17.626;2023-12-07T09:41:01;9.20;;;4.32;;
60612;SDS011;46443;59.792;17.626;2023-12-07T09:43:28;8.75;;;4.30;;
60612;SDS011;46443;59.792;17.626;2023-12-07T09:45:54;7.07;;;3.80;;
60612;SDS011;46443;59.792;17.626;2023-12-07T09:48:21;9.13;;;4.50;;
60612;SDS011;46443;59.792;17.626;2023-12-07T09:50:47;8.18;;;4.55;;
60612;SDS011;46443;59.792;17.626;2023-12-07T09:53:13;8.55;;;4.13;;
60612;SDS011;46443;59.792;17.626;2023-12-07T09:55:39;9.60;;;4.50;;
60612;SDS011;46443;59.792;17.626;2023-12-07T09:58:06;8.60;;;4.22;;
60612;SDS011;46443;59.792;17.626;2023-12-07T10:00:32;9.32;;;4.65;;
60612;SDS011;46443;59.792;17.626;2023-12-07T10:02:58;8.43;;;4.45;;
60612;SDS011;46443;59.792;17.626;2023-12-07T10:05:24;7.97;;;4.85;;
60612;SDS011;46443;59.792;17.626;2023-12-07T10:07:50;11.60;;;5.32;;
60612;SDS011;46443;59.792;17.626;2023-12-07T10:10:17;9.23;;;4.68;;
60612;SDS011;46443;59.792;17.626;2023-12-07T10:12:44;8.57;;;4.40;;
60612;SDS011;46443;59.792;17.626;2023-12-07T10:15:15;9.60;;;4.45;;
60612;SDS011;46443;59.792;17.626;2023-12-07T10:17:48;10.52;;;5.15;;
60612;SDS011;46443;59.792;17.626;2023-12-07T10:20:18;9.05;;;4.53;;
60612;SDS011;46443;59.792;17.626;2023-12-07T10:22:47;9.07;;;4.28;;
60612;SDS011;46443;59.792;17.626;2023-12-07T10:25:13;8.60;;;5.18;;
60612;SDS011;46443;59.792;17.626;2023-12-07T10:27:43;9.80;;;4.80;;
60612;SDS011;46443;59.792;17.626;2023-12-07T10:32:37;9.45;;;4.45;;
60612;SDS011;46443;59.792;17.626;2023-12-07T10:35:05;7.85;;;4.35;;
60612;SDS011;46443;59.792;17.626;2023-12-07T10:37:32;9.50;;;4.63;;
60612;SDS011;46443;59.792;17.626;2023-12-07T10:39:58;7.25;;;3.97;;
60612;SDS011;46443;59.792;17.626;2023-12-07T10:42:24;8.50;;;4.15;;
60612;SDS011;46443;59.792;17.626;2023-12-07T10:44:52;10.52;;;4.18;;
60612;SDS011;46443;59.792;17.626;2023-12-07T10:47:19;9.30;;;4.30;;
60612;SDS011;46443;59.792;17.626;2023-12-07T10:49:45;10.43;;;5.20;;
60612;SDS011;46443;59.792;17.626;2023-12-07T10:52:13;10.05;;;4.55;;
60612;SDS011;46443;59.792;17.626;2023-12-07T10:54:43;9.73;;;4.60;;
60612;SDS011;46443;59.792;17.626;2023-12-07T10:57:13;10.50;;;4.45;;
60612;SDS011;46443;59.792;17.626;2023-12-07T10:59:41;9.77;;;4.88;;
60612;SDS011;46443;59.792;17.626;2023-12-07T11:02:09;11.63;;;4.15;;
60612;SDS011;46443;59.792;17.626;2023-12-07T11:04:36;8.88;;;4.90;;
60612;SDS011;46443;59.792;17.626;2023-12-07T11:07:03;9.48;;;4.90;;
60612;SDS011;46443;59.792;17.626;2023-12-07T11:09:32;13.23;;;4.97;;
60612;SDS011;46443;59.792;17.626;2023-12-07T11:12:02;6.25;;;3.60;;
60612;SDS011;46443;59.792;17.626;2023-12-07T11:14:32;7.95;;;4.50;;
60612;SDS011;46443;59.792;17.626;2023-12-07T11:16:58;8.98;;;4.38;;
60612;SDS011;46443;59.792;17.626;2023-12-07T11:22:00;11.30;;;4.68;;
60612;SDS011;46443;59.792;17.626;2023-12-07T11:24:26;7.65;;;4.88;;
60612;SDS011;46443;59.792;17.626;2023-12-07T11:26:53;9.60;;;4.30;;
60612;SDS011;46443;59.792;17.626;2023-12-07T11:29:19;11.57;;;5.57;;
60612;SDS011;46443;59.792;17.626;2023-12-07T11:31:46;9.15;;;3.95;;
60612;SDS011;46443;59.792;17.626;2023-12-07T11:34:31;11.00;;;4.70;;
60612;SDS011;46443;59.792;17.626;2023-12-07T11:36:58;9.27;;;4.45;;
60612;SDS011;46443;59.792;17.626;2023-12-07T11:39:24;8.68;;;3.72;;
60612;SDS011;46443;59.792;17.626;2023-12-07T11:41:53;11.13;;;4.60;;
60612;SDS011;46443;59.792;17.626;2023-12-07T11:44:23;7.53;;;4.40;;
60612;SDS011;46443;59.792;17.626;2023-12-07T11:46:50;7.72;;;4.15;;
60612;SDS011;46443;59.792;17.626;2023-12-07T11:49:16;7.75;;;4.10;;
60612;SDS011;46443;59.792;17.626;2023-12-07T11:51:42;8.25;;;3.97;;
60612;SDS011;46443;59.792;17.626;2023-12-07T11:54:09;9.52;;;3.97;;
60612;SDS011;46443;59.792;17.626;2023-12-07T11:56:36;8.52;;;4.05;;
60612;SDS011;46443;59.792;17.626;2023-12-07T11:59:02;8.18;;;5.00;;
60612;SDS011;46443;59.792;17.626;2023-12-07T12:01:29;10.45;;;4.82;;
60612;SDS011;46443;59.792;17.626;2023-12-07T12:03:55;9.48;;;4.70;;
60612;SDS011;46443;59.792;17.626;2023-12-07T12:06:23;8.57;;;4.20;;
60612;SDS011;46443;59.792;17.626;2023-12-07T12:08:49;8.65;;;4.50;;
60612;SDS011;46443;59.792;17.626;2023-12-07T12:11:15;8.50;;;4.75;;
60612;SDS011;46443;59.792;17.626;2023-12-07T12:13:41;8.07;;;3.75;;
60612;SDS011;46443;59.792;17.626;2023-12-07T12:16:07;9.30;;;4.13;;
60612;SDS011;46443;59.792;17.626;2023-12-07T12:18:34;6.53;;;3.45;;
60612;SDS011;46443;59.792;17.626;2023-12-07T12:21:00;8.70;;;3.55;;
60612;SDS011;46443;59.792;17.626;2023-12-07T12:23:27;8.80;;;4.45;;
60612;SDS011;46443;59.792;17.626;2023-12-07T12:25:54;6.55;;;3.42;;
60612;SDS011;46443;59.792;17.626;2023-12-07T12:28:20;7.65;;;3.55;;
60612;SDS011;46443;59.792;17.626;2023-12-07T12:30:48;7.15;;;3.60;;
60612;SDS011;46443;59.792;17.626;2023-12-07T12:33:16;7.97;;;3.83;;
60612;SDS011;46443;59.792;17.626;2023-12-07T12:35:43;8.70;;;4.00;;
60612;SDS011;46443;59.792;17.626;2023-12-07T12:38:09;8.43;;;4.43;;
60612;SDS011;46443;59.792;17.626;2023-12-07T12:40:36;7.80;;;4.22;;
60612;SDS011;46443;59.792;17.626;2023-12-07T12:43:02;10.43;;;4.57;;
60612;SDS011;46443;59.792;17.626;2023-12-07T12:45:28;9.65;;;4.57;;
60612;SDS011;46443;59.792;17.626;2023-12-07T12:47:54;7.97;;;4.07;;
60612;SDS011;46443;59.792;17.626;2023-12-07T12:50:39;8.25;;;4.00;;
60612;SDS011;46443;59.792;17.626;2023-12-07T12:53:06;7.47;;;4.07;;
60612;SDS011;46443;59.792;17.626;2023-12-07T12:55:33;7.97;;;4.38;;
60612;SDS011;46443;59.792;17.626;2023-12-07T12:57:59;8.45;;;4.45;;
60612;SDS011;46443;59.792;17.626;2023-12-07T13:00:26;7.00;;;4.10;;
60612;SDS011;46443;59.792;17.626;2023-12-07T13:02:52;8.43;;;4.32;;
60612;SDS011;46443;59.792;17.626;2023-12-07T13:05:18;10.52;;;4.22;;
60612;SDS011;46443;59.792;17.626;2023-12-07T13:07:44;7.15;;;3.90;;
60612;SDS011;46443;59.792;17.626;2023-12-07T13:10:13;8.63;;;4.65;;
60612;SDS011;46443;59.792;17.626;2023-12-07T13:12:39;10.57;;;4.30;;
60612;SDS011;46443;59.792;17.626;2023-12-07T13:15:06;9.75;;;4.80;;
60612;SDS011;46443;59.792;17.626;2023-12-07T13:17:32;10.32;;;4.70;;
60612;SDS011;46443;59.792;17.626;2023-12-07T13:19:59;12.18;;;5.78;;
60612;SDS011;46443;59.792;17.626;2023-12-07T13:22:25;11.40;;;5.18;;
60612;SDS011;46443;59.792;17.626;2023-12-07T13:24:51;13.02;;;5.30;;
60612;SDS011;46443;59.792;17.626;2023-12-07T13:27:17;10.02;;;5.40;;
60612;SDS011;46443;59.792;17.626;2023-12-07T13:29:43;10.25;;;5.00;;
60612;SDS011;46443;59.792;17.626;2023-12-07T13:32:10;11.15;;;4.78;;
60612;SDS011;46443;59.792;17.626;2023-12-07T13:34:37;10.00;;;5.20;;
60612;SDS011;46443;59.792;17.626;2023-12-07T13:37:03;9.43;;;5.05;;
60612;SDS011;46443;59.792;17.626;2023-12-07T13:39:30;10.57;;;5.78;;
60612;SDS011;46443;59.792;17.626;2023-12-07T13:41:56;9.48;;;5.00;;
60612;SDS011;46443;59.792;17.626;2023-12-07T13:44:22;10.38;;;4.90;;
60612;SDS011;46443;59.792;17.626;2023-12-07T13:46:49;8.85;;;4.93;;
60612;SDS011;46443;59.792;17.626;2023-12-07T13:49:15;12.02;;;5.80;;
60612;SDS011;46443;59.792;17.626;2023-12-07T13:51:42;9.30;;;5.00;;
60612;SDS011;46443;59.792;17.626;2023-12-07T13:54:08;9.95;;;4.55;;
60612;SDS011;46443;59.792;17.626;2023-12-07T13:56:34;10.00;;;4.82;;
60612;SDS011;46443;59.792;17.626;2023-12-07T13:59:01;9.38;;;4.82;;
60612;SDS011;46443;59.792;17.626;2023-12-07T14:01:27;11.50;;;5.25;;
60612;SDS011;46443;59.792;17.626;2023-12-07T14:03:53;10.40;;;5.53;;
60612;SDS011;46443;59.792;17.626;2023-12-07T14:06:23;8.88;;;4.43;;
60612;SDS011;46443;59.792;17.626;2023-12-07T14:08:49;10.75;;;4.70;;
60612;SDS011;46443;59.792;17.626;2023-12-07T14:11:16;12.85;;;5.32;;
60612;SDS011;46443;59.792;17.626;2023-12-07T14:13:42;9.90;;;5.55;;
60612;SDS011;46443;59.792;17.626;2023-12-07T14:16:11;12.23;;;5.95;;
60612;SDS011;46443;59.792;17.626;2023-12-07T14:18:37;10.57;;;5.07;;
60612;SDS011;46443;59.792;17.626;2023-12-07T14:21:03;10.40;;;4.90;;
60612;SDS011;46443;59.792;17.626;2023-12-07T14:23:29;10.48;;;5.03;;
60612;SDS011;46443;59.792;17.626;2023-12-07T14:25:55;10.18;;;5.15;;
60612;SDS011;46443;59.792;17.626;2023-12-07T14:28:25;11.13;;;5.10;;
60612;SDS011;46443;59.792;17.626;2023-12-07T14:30:53;12.45;;;5.20;;
60612;SDS011;46443;59.792;17.626;2023-12-07T14:33:21;9.48;;;4.78;;
60612;SDS011;46443;59.792;17.626;2023-12-07T14:35:47;12.48;;;5.97;;
60612;SDS011;46443;59.792;17.626;2023-12-07T14:38:14;11.45;;;5.45;;